sensor_id;sensor_type;location;lat;lon;timestamp;temperature;humidity
17442;DHT22;8838;50.144;8.176;2024-03-17T00:02:17;4.80;99.90
17442;DHT22;8838;50.144;8.176;2024-03-17T00:04:43;4.90;99.90
17442;DHT22;8838;50.144;8.176;2024-03-17T00:07:11;4.90;99.90
17442;DHT22;8838;50.144;8.176;2024-03-17T00:09:36;5.00;99.90
17442;DHT22;8838;50.144;8.176;2024-03-17T00:12:04;5.00;99.90
17442;DHT22;8838;50.144;8.176;2024-03-17T00:14:30;5.00;99.90
17442;DHT22;8838;50.144;8.176;2024-03-17T00:16:57;4.80;99.90
17442;DHT22;8838;50.144;8.176;2024-03-17T00:19:23;4.90;99.90
17442;DHT22;8838;50.144;8.176;2024-03-17T00:21:50;4.90;99.90
17442;DHT22;8838;50.144;8.176;2024-03-17T00:24:18;4.90;99.90
17442;DHT22;8838;50.144;8.176;2024-03-17T00:26:45;5.00;99.90
17442;DHT22;8838;50.144;8.176;2024-03-17T00:29:11;5.00;99.90
17442;DHT22;8838;50.144;8.176;2024-03-17T00:31:38;5.00;99.90
17442;DHT22;8838;50.144;8.176;2024-03-17T00:34:04;5.00;99.90
17442;DHT22;8838;50.144;8.176;2024-03-17T00:36:30;4.90;99.90
17442;DHT22;8838;50.144;8.176;2024-03-17T00:38:57;5.00;99.90
17442;DHT22;8838;50.144;8.176;2024-03-17T00:41:25;4.90;99.90
17442;DHT22;8838;50.144;8.176;2024-03-17T00:43:51;4.90;99.90
17442;DHT22;8838;50.144;8.176;2024-03-17T00:46:18;4.90;99.90
17442;DHT22;8838;50.144;8.176;2024-03-17T00:48:47;5.00;99.90
17442;DHT22;8838;50.144;8.176;2024-03-17T00:51:14;5.00;99.90
17442;DHT22;8838;50.144;8.176;2024-03-17T00:53:40;4.90;99.90
17442;DHT22;8838;50.144;8.176;2024-03-17T00:56:07;4.90;99.90
17442;DHT22;8838;50.144;8.176;2024-03-17T00:58:34;4.90;99.90
17442;DHT22;8838;50.144;8.176;2024-03-17T01:01:01;4.90;99.90
17442;DHT22;8838;50.144;8.176;2024-03-17T01:03:27;4.90;99.90
17442;DHT22;8838;50.144;8.176;2024-03-17T01:05:54;4.80;99.90
17442;DHT22;8838;50.144;8.176;2024-03-17T01:08:20;4.80;99.90
17442;DHT22;8838;50.144;8.176;2024-03-17T01:10:49;4.80;99.90
17442;DHT22;8838;50.144;8.176;2024-03-17T01:13:16;4.70;99.90
17442;DHT22;8838;50.144;8.176;2024-03-17T01:15:44;4.70;99.90
17442;DHT22;8838;50.144;8.176;2024-03-17T01:18:10;4.60;99.90
17442;DHT22;8838;50.144;8.176;2024-03-17T01:20:37;4.60;99.90
17442;DHT22;8838;50.144;8.176;2024-03-17T01:23:04;4.60;99.90
17442;DHT22;8838;50.144;8.176;2024-03-17T01:25:33;4.60;99.90
17442;DHT22;8838;50.144;8.176;2024-03-17T01:28:01;4.50;99.90
17442;DHT22;8838;50.144;8.176;2024-03-17T01:30:28;4.50;99.90
17442;DHT22;8838;50.144;8.176;2024-03-17T01:32:56;4.40;99.90
17442;DHT22;8838;50.144;8.176;2024-03-17T01:35:23;4.50;99.90
17442;DHT22;8838;50.144;8.176;2024-03-17T01:37:49;4.40;99.90
17442;DHT22;8838;50.144;8.176;2024-03-17T01:40:15;4.40;99.90
17442;DHT22;8838;50.144;8.176;2024-03-17T01:42:42;4.30;99.90
17442;DHT22;8838;50.144;8.176;2024-03-17T01:45:23;4.20;99.90
17442;DHT22;8838;50.144;8.176;2024-03-17T01:47:52;4.20;99.90
17442;DHT22;8838;50.144;8.176;2024-03-17T01:50:19;4.10;99.90
17442;DHT22;8838;50.144;8.176;2024-03-17T01:52:51;3.90;99.90
17442;DHT22;8838;50.144;8.176;2024-03-17T01:55:18;3.80;99.90
17442;DHT22;8838;50.144;8.176;2024-03-17T01:57:46;3.70;99.90
17442;DHT22;8838;50.144;8.176;2024-03-17T02:00:12;3.60;99.90
17442;DHT22;8838;50.144;8.176;2024-03-17T02:02:40;3.60;99.90
17442;DHT22;8838;50.144;8.176;2024-03-17T02:05:06;3.50;99.90
17442;DHT22;8838;50.144;8.176;2024-03-17T02:07:35;3.50;99.90
17442;DHT22;8838;50.144;8.176;2024-03-17T02:10:01;3.40;99.90
17442;DHT22;8838;50.144;8.176;2024-03-17T02:12:29;3.40;99.90
17442;DHT22;8838;50.144;8.176;2024-03-17T02:14:56;3.50;99.90
17442;DHT22;8838;50.144;8.176;2024-03-17T02:17:23;3.40;99.90
17442;DHT22;8838;50.144;8.176;2024-03-17T02:19:50;3.40;99.90
17442;DHT22;8838;50.144;8.176;2024-03-17T02:22:18;3.40;99.90
17442;DHT22;8838;50.144;8.176;2024-03-17T02:24:45;3.40;99.90
17442;DHT22;8838;50.144;8.176;2024-03-17T02:27:12;3.40;99.90
17442;DHT22;8838;50.144;8.176;2024-03-17T02:29:38;3.40;99.90
17442;DHT22;8838;50.144;8.176;2024-03-17T02:32:06;3.40;99.90
17442;DHT22;8838;50.144;8.176;2024-03-17T02:34:33;3.30;99.90
17442;DHT22;8838;50.144;8.176;2024-03-17T02:37:00;3.10;99.90
17442;DHT22;8838;50.144;8.176;2024-03-17T02:39:27;3.00;99.90
17442;DHT22;8838;50.144;8.176;2024-03-17T02:42:11;3.00;99.90
17442;DHT22;8838;50.144;8.176;2024-03-17T02:44:38;3.00;99.90
17442;DHT22;8838;50.144;8.176;2024-03-17T02:47:05;3.00;99.90
17442;DHT22;8838;50.144;8.176;2024-03-17T02:49:34;3.00;99.90
17442;DHT22;8838;50.144;8.176;2024-03-17T02:52:03;3.00;99.90
17442;DHT22;8838;50.144;8.176;2024-03-17T02:54:32;2.90;99.90
17442;DHT22;8838;50.144;8.176;2024-03-17T02:57:00;2.90;99.90
17442;DHT22;8838;50.144;8.176;2024-03-17T02:59:27;3.00;99.90
17442;DHT22;8838;50.144;8.176;2024-03-17T03:01:55;3.10;99.90
17442;DHT22;8838;50.144;8.176;2024-03-17T03:04:21;3.20;99.90
17442;DHT22;8838;50.144;8.176;2024-03-17T03:06:48;3.20;99.90
17442;DHT22;8838;50.144;8.176;2024-03-17T03:09:15;3.20;99.90
17442;DHT22;8838;50.144;8.176;2024-03-17T03:11:48;3.20;99.90
17442;DHT22;8838;50.144;8.176;2024-03-17T03:14:15;3.10;99.90
17442;DHT22;8838;50.144;8.176;2024-03-17T03:16:42;3.00;99.90
17442;DHT22;8838;50.144;8.176;2024-03-17T03:19:09;2.90;99.90
17442;DHT22;8838;50.144;8.176;2024-03-17T03:21:35;2.80;99.90
17442;DHT22;8838;50.144;8.176;2024-03-17T03:24:02;2.80;99.90
17442;DHT22;8838;50.144;8.176;2024-03-17T03:26:29;2.70;99.90
17442;DHT22;8838;50.144;8.176;2024-03-17T03:28:57;2.60;99.90
17442;DHT22;8838;50.144;8.176;2024-03-17T03:31:24;2.60;99.90
17442;DHT22;8838;50.144;8.176;2024-03-17T03:33:51;2.60;99.90
17442;DHT22;8838;50.144;8.176;2024-03-17T03:36:18;2.70;99.90
17442;DHT22;8838;50.144;8.176;2024-03-17T03:38:46;2.80;99.90
17442;DHT22;8838;50.144;8.176;2024-03-17T03:41:14;2.80;99.90
17442;DHT22;8838;50.144;8.176;2024-03-17T03:43:42;2.70;99.90
17442;DHT22;8838;50.144;8.176;2024-03-17T03:46:10;2.60;99.90
17442;DHT22;8838;50.144;8.176;2024-03-17T03:48:37;2.50;99.90
17442;DHT22;8838;50.144;8.176;2024-03-17T03:51:04;2.50;99.90
17442;DHT22;8838;50.144;8.176;2024-03-17T03:53:31;2.50;99.90
17442;DHT22;8838;50.144;8.176;2024-03-17T03:55:58;2.60;99.90
17442;DHT22;8838;50.144;8.176;2024-03-17T03:58:26;2.60;99.90
17442;DHT22;8838;50.144;8.176;2024-03-17T04:00:54;2.60;99.90
17442;DHT22;8838;50.144;8.176;2024-03-17T04:03:22;2.60;99.90
17442;DHT22;8838;50.144;8.176;2024-03-17T04:05:49;2.60;99.90
17442;DHT22;8838;50.144;8.176;2024-03-17T04:08:16;2.60;99.90
17442;DHT22;8838;50.144;8.176;2024-03-17T04:10:43;2.20;99.90
17442;DHT22;8838;50.144;8.176;2024-03-17T04:13:10;2.20;99.90
17442;DHT22;8838;50.144;8.176;2024-03-17T04:15:37;2.20;99.90
17442;DHT22;8838;50.144;8.176;2024-03-17T04:18:04;2.20;99.90
17442;DHT22;8838;50.144;8.176;2024-03-17T04:20:32;2.20;99.90
17442;DHT22;8838;50.144;8.176;2024-03-17T04:22:59;2.20;99.90
17442;DHT22;8838;50.144;8.176;2024-03-17T04:25:26;2.30;99.90
17442;DHT22;8838;50.144;8.176;2024-03-17T04:27:53;2.30;99.90
17442;DHT22;8838;50.144;8.176;2024-03-17T04:30:20;2.30;99.90
17442;DHT22;8838;50.144;8.176;2024-03-17T04:32:47;2.30;99.90
17442;DHT22;8838;50.144;8.176;2024-03-17T04:35:14;2.30;99.90
17442;DHT22;8838;50.144;8.176;2024-03-17T04:37:42;2.30;99.90
17442;DHT22;8838;50.144;8.176;2024-03-17T04:40:10;2.30;99.90
17442;DHT22;8838;50.144;8.176;2024-03-17T04:42:37;2.40;99.90
17442;DHT22;8838;50.144;8.176;2024-03-17T04:45:07;2.30;99.90
17442;DHT22;8838;50.144;8.176;2024-03-17T04:47:35;2.30;99.90
17442;DHT22;8838;50.144;8.176;2024-03-17T04:50:03;2.30;99.90
17442;DHT22;8838;50.144;8.176;2024-03-17T04:52:30;2.30;99.90
17442;DHT22;8838;50.144;8.176;2024-03-17T04:54:58;2.40;99.90
17442;DHT22;8838;50.144;8.176;2024-03-17T04:57:25;2.50;99.90
17442;DHT22;8838;50.144;8.176;2024-03-17T04:59:52;2.60;99.90
17442;DHT22;8838;50.144;8.176;2024-03-17T05:02:19;2.70;99.90
17442;DHT22;8838;50.144;8.176;2024-03-17T05:04:45;2.80;99.90
17442;DHT22;8838;50.144;8.176;2024-03-17T05:07:13;2.90;99.90
17442;DHT22;8838;50.144;8.176;2024-03-17T05:09:40;2.90;99.90
17442;DHT22;8838;50.144;8.176;2024-03-17T05:12:10;2.90;99.90
17442;DHT22;8838;50.144;8.176;2024-03-17T05:14:37;3.00;99.90
17442;DHT22;8838;50.144;8.176;2024-03-17T05:17:04;3.00;99.90
17442;DHT22;8838;50.144;8.176;2024-03-17T05:19:31;3.10;99.90
17442;DHT22;8838;50.144;8.176;2024-03-17T05:21:58;3.10;99.90
17442;DHT22;8838;50.144;8.176;2024-03-17T05:24:25;3.20;99.90
17442;DHT22;8838;50.144;8.176;2024-03-17T05:26:52;3.20;99.90
17442;DHT22;8838;50.144;8.176;2024-03-17T05:29:20;3.20;99.90
17442;DHT22;8838;50.144;8.176;2024-03-17T05:31:48;3.20;99.90
17442;DHT22;8838;50.144;8.176;2024-03-17T05:34:15;3.20;99.90
17442;DHT22;8838;50.144;8.176;2024-03-17T05:36:42;3.20;99.90
17442;DHT22;8838;50.144;8.176;2024-03-17T05:39:09;3.20;99.90
17442;DHT22;8838;50.144;8.176;2024-03-17T05:41:35;3.30;99.90
17442;DHT22;8838;50.144;8.176;2024-03-17T05:44:02;3.30;99.90
17442;DHT22;8838;50.144;8.176;2024-03-17T05:46:31;3.30;99.90
17442;DHT22;8838;50.144;8.176;2024-03-17T05:48:58;3.30;99.90
17442;DHT22;8838;50.144;8.176;2024-03-17T05:51:24;3.40;99.90
17442;DHT22;8838;50.144;8.176;2024-03-17T05:53:53;3.50;99.90
17442;DHT22;8838;50.144;8.176;2024-03-17T05:56:21;3.50;99.90
17442;DHT22;8838;50.144;8.176;2024-03-17T05:58:48;3.50;99.90
17442;DHT22;8838;50.144;8.176;2024-03-17T06:01:15;3.60;99.90
17442;DHT22;8838;50.144;8.176;2024-03-17T06:03:43;3.70;99.90
17442;DHT22;8838;50.144;8.176;2024-03-17T06:06:10;3.80;99.90
17442;DHT22;8838;50.144;8.176;2024-03-17T06:08:37;3.90;99.90
17442;DHT22;8838;50.144;8.176;2024-03-17T06:11:04;4.00;99.90
17442;DHT22;8838;50.144;8.176;2024-03-17T06:13:32;4.20;99.90
17442;DHT22;8838;50.144;8.176;2024-03-17T06:15:58;4.30;99.90
17442;DHT22;8838;50.144;8.176;2024-03-17T06:18:27;4.30;99.90
17442;DHT22;8838;50.144;8.176;2024-03-17T06:20:55;4.40;99.90
17442;DHT22;8838;50.144;8.176;2024-03-17T06:23:24;4.30;99.90
17442;DHT22;8838;50.144;8.176;2024-03-17T06:25:52;4.30;99.90
17442;DHT22;8838;50.144;8.176;2024-03-17T06:28:19;4.40;99.90
17442;DHT22;8838;50.144;8.176;2024-03-17T06:30:54;4.40;99.90
17442;DHT22;8838;50.144;8.176;2024-03-17T06:33:21;4.40;99.90
17442;DHT22;8838;50.144;8.176;2024-03-17T06:35:48;4.50;99.90
17442;DHT22;8838;50.144;8.176;2024-03-17T06:38:16;4.60;99.90
17442;DHT22;8838;50.144;8.176;2024-03-17T06:40:48;4.60;99.90
17442;DHT22;8838;50.144;8.176;2024-03-17T06:43:15;4.70;99.90
17442;DHT22;8838;50.144;8.176;2024-03-17T06:45:42;4.90;99.90
17442;DHT22;8838;50.144;8.176;2024-03-17T06:48:09;5.00;99.90
17442;DHT22;8838;50.144;8.176;2024-03-17T06:50:38;5.20;99.90
17442;DHT22;8838;50.144;8.176;2024-03-17T06:53:06;5.30;99.90
17442;DHT22;8838;50.144;8.176;2024-03-17T06:55:35;5.40;99.90
17442;DHT22;8838;50.144;8.176;2024-03-17T06:58:02;5.50;99.90
17442;DHT22;8838;50.144;8.176;2024-03-17T07:00:29;5.60;99.90
17442;DHT22;8838;50.144;8.176;2024-03-17T07:02:56;5.80;99.90
17442;DHT22;8838;50.144;8.176;2024-03-17T07:05:23;6.10;99.90
17442;DHT22;8838;50.144;8.176;2024-03-17T07:07:50;6.20;99.90
17442;DHT22;8838;50.144;8.176;2024-03-17T07:10:17;6.40;99.90
17442;DHT22;8838;50.144;8.176;2024-03-17T07:12:45;6.50;99.90
17442;DHT22;8838;50.144;8.176;2024-03-17T07:15:12;6.70;99.90
17442;DHT22;8838;50.144;8.176;2024-03-17T07:17:39;7.00;99.90
17442;DHT22;8838;50.144;8.176;2024-03-17T07:20:06;7.30;99.90
17442;DHT22;8838;50.144;8.176;2024-03-17T07:22:34;7.60;99.90
17442;DHT22;8838;50.144;8.176;2024-03-17T07:25:01;7.80;99.90
17442;DHT22;8838;50.144;8.176;2024-03-17T07:27:28;8.10;99.90
17442;DHT22;8838;50.144;8.176;2024-03-17T07:29:56;8.30;99.90
17442;DHT22;8838;50.144;8.176;2024-03-17T07:32:23;8.40;99.90
17442;DHT22;8838;50.144;8.176;2024-03-17T07:34:50;8.50;99.90
17442;DHT22;8838;50.144;8.176;2024-03-17T07:37:17;8.80;99.90
17442;DHT22;8838;50.144;8.176;2024-03-17T07:39:44;9.20;99.90
17442;DHT22;8838;50.144;8.176;2024-03-17T07:42:13;9.60;99.90
17442;DHT22;8838;50.144;8.176;2024-03-17T07:44:43;10.00;99.90
17442;DHT22;8838;50.144;8.176;2024-03-17T07:47:11;10.30;99.90
17442;DHT22;8838;50.144;8.176;2024-03-17T07:49:38;10.80;99.90
17442;DHT22;8838;50.144;8.176;2024-03-17T07:52:05;11.40;99.90
17442;DHT22;8838;50.144;8.176;2024-03-17T07:54:32;12.00;99.90
17442;DHT22;8838;50.144;8.176;2024-03-17T07:57:00;12.30;99.90
17442;DHT22;8838;50.144;8.176;2024-03-17T07:59:27;12.50;99.90
17442;DHT22;8838;50.144;8.176;2024-03-17T08:01:55;12.30;99.90
17442;DHT22;8838;50.144;8.176;2024-03-17T08:04:24;11.40;99.90
17442;DHT22;8838;50.144;8.176;2024-03-17T08:06:50;11.00;99.90
17442;DHT22;8838;50.144;8.176;2024-03-17T08:09:17;10.70;99.90
17442;DHT22;8838;50.144;8.176;2024-03-17T08:11:44;10.50;99.90
17442;DHT22;8838;50.144;8.176;2024-03-17T08:14:12;10.20;99.90
17442;DHT22;8838;50.144;8.176;2024-03-17T08:16:40;10.60;99.90
17442;DHT22;8838;50.144;8.176;2024-03-17T08:19:07;10.80;99.90
17442;DHT22;8838;50.144;8.176;2024-03-17T08:21:35;11.20;99.90
17442;DHT22;8838;50.144;8.176;2024-03-17T08:24:02;11.60;99.90
17442;DHT22;8838;50.144;8.176;2024-03-17T08:26:29;11.80;99.90
17442;DHT22;8838;50.144;8.176;2024-03-17T08:28:56;12.00;99.90
17442;DHT22;8838;50.144;8.176;2024-03-17T08:31:23;12.30;99.90
17442;DHT22;8838;50.144;8.176;2024-03-17T08:33:50;12.90;99.90
17442;DHT22;8838;50.144;8.176;2024-03-17T08:36:18;13.00;99.90
17442;DHT22;8838;50.144;8.176;2024-03-17T08:38:47;12.90;99.90
17442;DHT22;8838;50.144;8.176;2024-03-17T08:41:14;12.80;99.90
17442;DHT22;8838;50.144;8.176;2024-03-17T08:43:41;12.80;99.90
17442;DHT22;8838;50.144;8.176;2024-03-17T08:46:09;12.70;99.90
17442;DHT22;8838;50.144;8.176;2024-03-17T08:48:39;12.60;99.90
17442;DHT22;8838;50.144;8.176;2024-03-17T08:51:07;12.50;99.90
17442;DHT22;8838;50.144;8.176;2024-03-17T08:53:35;12.40;99.90
17442;DHT22;8838;50.144;8.176;2024-03-17T08:56:05;12.40;99.90
17442;DHT22;8838;50.144;8.176;2024-03-17T08:58:32;12.20;99.90
17442;DHT22;8838;50.144;8.176;2024-03-17T09:01:03;11.90;99.90
17442;DHT22;8838;50.144;8.176;2024-03-17T09:03:30;11.80;99.90
17442;DHT22;8838;50.144;8.176;2024-03-17T09:05:57;11.60;99.90
17442;DHT22;8838;50.144;8.176;2024-03-17T09:08:24;11.10;99.90
17442;DHT22;8838;50.144;8.176;2024-03-17T09:10:53;10.80;99.90
17442;DHT22;8838;50.144;8.176;2024-03-17T09:13:22;10.60;99.90
17442;DHT22;8838;50.144;8.176;2024-03-17T09:15:52;10.50;99.90
17442;DHT22;8838;50.144;8.176;2024-03-17T09:18:19;10.70;99.90
17442;DHT22;8838;50.144;8.176;2024-03-17T09:20:46;10.80;99.90
17442;DHT22;8838;50.144;8.176;2024-03-17T09:23:13;10.80;99.90
17442;DHT22;8838;50.144;8.176;2024-03-17T09:25:40;10.90;99.90
17442;DHT22;8838;50.144;8.176;2024-03-17T09:28:07;10.60;99.90
17442;DHT22;8838;50.144;8.176;2024-03-17T09:30:35;10.60;99.90
17442;DHT22;8838;50.144;8.176;2024-03-17T09:33:02;10.70;99.90
17442;DHT22;8838;50.144;8.176;2024-03-17T09:35:30;10.80;99.90
17442;DHT22;8838;50.144;8.176;2024-03-17T09:37:56;10.90;99.90
17442;DHT22;8838;50.144;8.176;2024-03-17T09:40:23;10.70;99.90
17442;DHT22;8838;50.144;8.176;2024-03-17T09:42:50;10.70;99.90
17442;DHT22;8838;50.144;8.176;2024-03-17T09:45:18;10.60;99.90
17442;DHT22;8838;50.144;8.176;2024-03-17T09:47:47;10.50;99.90
17442;DHT22;8838;50.144;8.176;2024-03-17T09:50:14;10.40;99.90
17442;DHT22;8838;50.144;8.176;2024-03-17T09:52:42;10.70;99.90
17442;DHT22;8838;50.144;8.176;2024-03-17T09:55:15;11.20;99.90
17442;DHT22;8838;50.144;8.176;2024-03-17T09:57:43;12.10;99.90
17442;DHT22;8838;50.144;8.176;2024-03-17T10:00:11;12.50;99.90
17442;DHT22;8838;50.144;8.176;2024-03-17T10:02:43;12.90;99.90
17442;DHT22;8838;50.144;8.176;2024-03-17T10:05:22;13.00;99.90
17442;DHT22;8838;50.144;8.176;2024-03-17T10:07:49;12.70;99.90
17442;DHT22;8838;50.144;8.176;2024-03-17T10:10:18;12.60;99.90
17442;DHT22;8838;50.144;8.176;2024-03-17T10:12:49;12.50;99.90
17442;DHT22;8838;50.144;8.176;2024-03-17T10:15:16;12.80;99.90
17442;DHT22;8838;50.144;8.176;2024-03-17T10:17:44;12.90;99.90
17442;DHT22;8838;50.144;8.176;2024-03-17T10:20:12;13.60;99.90
17442;DHT22;8838;50.144;8.176;2024-03-17T10:22:57;14.30;99.90
17442;DHT22;8838;50.144;8.176;2024-03-17T10:25:25;14.60;99.90
17442;DHT22;8838;50.144;8.176;2024-03-17T10:27:53;15.00;99.90
17442;DHT22;8838;50.144;8.176;2024-03-17T10:30:20;14.90;99.90
17442;DHT22;8838;50.144;8.176;2024-03-17T10:32:52;14.40;99.90
17442;DHT22;8838;50.144;8.176;2024-03-17T10:35:28;14.30;99.90
17442;DHT22;8838;50.144;8.176;2024-03-17T10:37:58;13.50;99.90
17442;DHT22;8838;50.144;8.176;2024-03-17T10:40:26;13.20;99.90
17442;DHT22;8838;50.144;8.176;2024-03-17T10:42:53;13.00;99.90
17442;DHT22;8838;50.144;8.176;2024-03-17T10:45:19;13.00;99.90
17442;DHT22;8838;50.144;8.176;2024-03-17T10:47:48;12.80;99.90
17442;DHT22;8838;50.144;8.176;2024-03-17T10:50:17;12.50;99.90
17442;DHT22;8838;50.144;8.176;2024-03-17T10:52:46;12.40;99.90
17442;DHT22;8838;50.144;8.176;2024-03-17T10:55:25;12.60;99.90
17442;DHT22;8838;50.144;8.176;2024-03-17T10:57:53;12.80;99.90
17442;DHT22;8838;50.144;8.176;2024-03-17T11:00:22;12.70;99.90
17442;DHT22;8838;50.144;8.176;2024-03-17T11:02:51;12.80;99.90
17442;DHT22;8838;50.144;8.176;2024-03-17T11:05:20;12.90;99.90
17442;DHT22;8838;50.144;8.176;2024-03-17T11:07:50;12.80;99.90
17442;DHT22;8838;50.144;8.176;2024-03-17T11:10:21;12.90;99.90
17442;DHT22;8838;50.144;8.176;2024-03-17T11:12:50;12.90;99.90
17442;DHT22;8838;50.144;8.176;2024-03-17T11:15:38;13.00;99.90
17442;DHT22;8838;50.144;8.176;2024-03-17T11:21:21;13.00;99.90
17442;DHT22;8838;50.144;8.176;2024-03-17T11:23:58;13.40;99.90
17442;DHT22;8838;50.144;8.176;2024-03-17T11:26:33;13.60;99.90
17442;DHT22;8838;50.144;8.176;2024-03-17T11:29:02;13.60;99.90
17442;DHT22;8838;50.144;8.176;2024-03-17T11:31:43;13.70;99.90
17442;DHT22;8838;50.144;8.176;2024-03-17T11:34:31;13.80;99.90
17442;DHT22;8838;50.144;8.176;2024-03-17T11:36:57;14.00;99.90
17442;DHT22;8838;50.144;8.176;2024-03-17T11:39:50;14.00;99.90
17442;DHT22;8838;50.144;8.176;2024-03-17T11:42:21;14.80;99.90
17442;DHT22;8838;50.144;8.176;2024-03-17T11:45:00;15.10;99.90
17442;DHT22;8838;50.144;8.176;2024-03-17T11:47:37;15.10;99.90
17442;DHT22;8838;50.144;8.176;2024-03-17T11:50:06;15.10;99.90
17442;DHT22;8838;50.144;8.176;2024-03-17T11:52:35;15.10;99.90
17442;DHT22;8838;50.144;8.176;2024-03-17T11:55:02;14.60;99.90
17442;DHT22;8838;50.144;8.176;2024-03-17T11:57:28;14.30;99.90
17442;DHT22;8838;50.144;8.176;2024-03-17T11:59:56;14.10;99.90
17442;DHT22;8838;50.144;8.176;2024-03-17T12:02:25;14.00;99.90
17442;DHT22;8838;50.144;8.176;2024-03-17T12:04:53;13.80;99.90
17442;DHT22;8838;50.144;8.176;2024-03-17T12:07:20;13.70;99.90
17442;DHT22;8838;50.144;8.176;2024-03-17T12:09:49;13.80;99.90
17442;DHT22;8838;50.144;8.176;2024-03-17T12:12:18;14.00;99.90
17442;DHT22;8838;50.144;8.176;2024-03-17T12:14:45;14.20;99.90
17442;DHT22;8838;50.144;8.176;2024-03-17T12:17:12;14.30;99.90
17442;DHT22;8838;50.144;8.176;2024-03-17T12:19:44;14.30;99.90
17442;DHT22;8838;50.144;8.176;2024-03-17T12:22:15;14.10;99.90
17442;DHT22;8838;50.144;8.176;2024-03-17T12:24:44;13.70;99.90
17442;DHT22;8838;50.144;8.176;2024-03-17T12:27:18;13.40;99.90
17442;DHT22;8838;50.144;8.176;2024-03-17T12:29:47;13.50;99.90
17442;DHT22;8838;50.144;8.176;2024-03-17T12:32:14;13.50;99.90
17442;DHT22;8838;50.144;8.176;2024-03-17T12:34:43;13.50;99.90
17442;DHT22;8838;50.144;8.176;2024-03-17T12:37:16;13.50;99.90
17442;DHT22;8838;50.144;8.176;2024-03-17T12:39:45;13.30;99.90
17442;DHT22;8838;50.144;8.176;2024-03-17T12:42:13;13.10;99.90
17442;DHT22;8838;50.144;8.176;2024-03-17T12:44:47;13.10;99.90
17442;DHT22;8838;50.144;8.176;2024-03-17T12:47:16;13.40;99.90
17442;DHT22;8838;50.144;8.176;2024-03-17T12:49:48;13.60;99.90
17442;DHT22;8838;50.144;8.176;2024-03-17T12:52:21;13.70;99.90
17442;DHT22;8838;50.144;8.176;2024-03-17T12:54:56;14.00;99.90
17442;DHT22;8838;50.144;8.176;2024-03-17T12:57:46;14.20;99.90
17442;DHT22;8838;50.144;8.176;2024-03-17T13:00:30;14.20;99.90
17442;DHT22;8838;50.144;8.176;2024-03-17T13:02:58;14.00;99.90
17442;DHT22;8838;50.144;8.176;2024-03-17T13:05:26;14.00;99.90
17442;DHT22;8838;50.144;8.176;2024-03-17T13:07:53;13.70;99.90
17442;DHT22;8838;50.144;8.176;2024-03-17T13:10:22;13.50;99.90
17442;DHT22;8838;50.144;8.176;2024-03-17T13:12:58;13.40;99.90
17442;DHT22;8838;50.144;8.176;2024-03-17T13:15:25;13.40;99.90
17442;DHT22;8838;50.144;8.176;2024-03-17T13:17:52;13.40;99.90
17442;DHT22;8838;50.144;8.176;2024-03-17T13:20:19;13.60;99.90
17442;DHT22;8838;50.144;8.176;2024-03-17T13:22:47;13.50;99.90
17442;DHT22;8838;50.144;8.176;2024-03-17T13:25:16;13.50;99.90
17442;DHT22;8838;50.144;8.176;2024-03-17T13:27:43;13.50;99.90
17442;DHT22;8838;50.144;8.176;2024-03-17T13:30:11;13.30;99.90
17442;DHT22;8838;50.144;8.176;2024-03-17T13:32:38;13.20;99.90
17442;DHT22;8838;50.144;8.176;2024-03-17T13:35:05;12.90;99.90
17442;DHT22;8838;50.144;8.176;2024-03-17T13:37:34;12.80;99.90
17442;DHT22;8838;50.144;8.176;2024-03-17T13:40:03;12.90;99.90
17442;DHT22;8838;50.144;8.176;2024-03-17T13:42:30;13.00;99.90
17442;DHT22;8838;50.144;8.176;2024-03-17T13:44:57;13.00;99.90
17442;DHT22;8838;50.144;8.176;2024-03-17T13:47:24;13.00;99.90
17442;DHT22;8838;50.144;8.176;2024-03-17T13:49:51;13.00;99.90
17442;DHT22;8838;50.144;8.176;2024-03-17T13:52:18;12.60;99.90
17442;DHT22;8838;50.144;8.176;2024-03-17T13:54:45;12.50;99.90
17442;DHT22;8838;50.144;8.176;2024-03-17T13:57:13;12.50;99.90
17442;DHT22;8838;50.144;8.176;2024-03-17T13:59:41;12.50;99.90
17442;DHT22;8838;50.144;8.176;2024-03-17T14:02:12;12.50;99.90
17442;DHT22;8838;50.144;8.176;2024-03-17T14:04:39;12.50;99.90
17442;DHT22;8838;50.144;8.176;2024-03-17T14:07:05;12.50;99.90
17442;DHT22;8838;50.144;8.176;2024-03-17T14:09:32;12.50;99.90
17442;DHT22;8838;50.144;8.176;2024-03-17T14:11:59;12.50;99.90
17442;DHT22;8838;50.144;8.176;2024-03-17T14:14:27;12.50;99.90
17442;DHT22;8838;50.144;8.176;2024-03-17T14:16:54;12.50;99.90
17442;DHT22;8838;50.144;8.176;2024-03-17T14:19:22;12.40;99.90
17442;DHT22;8838;50.144;8.176;2024-03-17T14:21:48;12.40;99.90
17442;DHT22;8838;50.144;8.176;2024-03-17T14:24:16;12.30;99.90
17442;DHT22;8838;50.144;8.176;2024-03-17T14:26:43;12.30;99.90
17442;DHT22;8838;50.144;8.176;2024-03-17T14:29:10;12.40;99.90
17442;DHT22;8838;50.144;8.176;2024-03-17T14:31:37;12.40;99.90
17442;DHT22;8838;50.144;8.176;2024-03-17T14:34:05;12.30;99.90
17442;DHT22;8838;50.144;8.176;2024-03-17T14:36:33;12.30;99.90
17442;DHT22;8838;50.144;8.176;2024-03-17T14:39:00;12.20;99.90
17442;DHT22;8838;50.144;8.176;2024-03-17T14:41:27;12.20;99.90
17442;DHT22;8838;50.144;8.176;2024-03-17T14:43:55;12.10;99.90
17442;DHT22;8838;50.144;8.176;2024-03-17T14:46:23;12.20;99.90
17442;DHT22;8838;50.144;8.176;2024-03-17T14:48:51;12.10;99.90
17442;DHT22;8838;50.144;8.176;2024-03-17T14:51:18;12.00;99.90
17442;DHT22;8838;50.144;8.176;2024-03-17T14:53:46;11.90;99.90
17442;DHT22;8838;50.144;8.176;2024-03-17T14:56:15;11.80;99.90
17442;DHT22;8838;50.144;8.176;2024-03-17T14:58:42;11.80;99.90
17442;DHT22;8838;50.144;8.176;2024-03-17T15:01:09;11.70;99.90
17442;DHT22;8838;50.144;8.176;2024-03-17T15:03:37;11.80;99.90
17442;DHT22;8838;50.144;8.176;2024-03-17T15:06:11;11.80;99.90
17442;DHT22;8838;50.144;8.176;2024-03-17T15:08:38;11.90;99.90
17442;DHT22;8838;50.144;8.176;2024-03-17T15:11:05;12.00;99.90
17442;DHT22;8838;50.144;8.176;2024-03-17T15:13:35;12.20;99.90
17442;DHT22;8838;50.144;8.176;2024-03-17T15:16:02;12.20;99.90
17442;DHT22;8838;50.144;8.176;2024-03-17T15:18:30;12.20;99.90
17442;DHT22;8838;50.144;8.176;2024-03-17T15:20:57;12.20;99.90
17442;DHT22;8838;50.144;8.176;2024-03-17T15:23:27;12.20;99.90
17442;DHT22;8838;50.144;8.176;2024-03-17T15:26:02;12.20;99.90
17442;DHT22;8838;50.144;8.176;2024-03-17T15:28:34;12.30;99.90
17442;DHT22;8838;50.144;8.176;2024-03-17T15:31:04;12.50;99.90
17442;DHT22;8838;50.144;8.176;2024-03-17T15:33:32;12.50;99.90
17442;DHT22;8838;50.144;8.176;2024-03-17T15:36:02;12.50;99.90
17442;DHT22;8838;50.144;8.176;2024-03-17T15:38:31;12.50;99.90
17442;DHT22;8838;50.144;8.176;2024-03-17T15:40:59;12.40;99.90
17442;DHT22;8838;50.144;8.176;2024-03-17T15:43:26;12.30;99.90
17442;DHT22;8838;50.144;8.176;2024-03-17T15:45:53;12.10;99.90
17442;DHT22;8838;50.144;8.176;2024-03-17T15:48:20;12.00;99.90
17442;DHT22;8838;50.144;8.176;2024-03-17T15:50:53;12.00;99.90
17442;DHT22;8838;50.144;8.176;2024-03-17T15:53:20;12.00;99.90
17442;DHT22;8838;50.144;8.176;2024-03-17T15:55:54;11.80;99.90
17442;DHT22;8838;50.144;8.176;2024-03-17T15:58:21;11.90;99.90
17442;DHT22;8838;50.144;8.176;2024-03-17T16:00:48;11.80;99.90
17442;DHT22;8838;50.144;8.176;2024-03-17T16:03:15;11.70;99.90
17442;DHT22;8838;50.144;8.176;2024-03-17T16:05:45;11.70;99.90